Time;durP1;ratioP1;P1;durP2;ratioP2;P2;SDS_P1;SDS_P2;PMS_P1;PMS_P2;Temp;Humidity;BMP_temperature;BMP_pressure;BME280_temperature;BME280_humidity;BME280_pressure;Samples;Min_cycle;Max_cycle;Signal;HPM_P1;HPM_P2
2021/11/27 00:02:02;;;;;;;6.88;4.35;;;5.00;99.90;;;;;;5086650;28;20200;-75
2021/11/27 00:04:47;;;;;;;8.57;4.63;;;4.90;99.90;;;;;;5086600;28;20222;-75
2021/11/27 00:07:33;;;;;;;7.55;4.35;;;4.90;99.90;;;;;;5091134;28;21517;-74
2021/11/27 00:10:21;;;;;;;9.55;3.50;;;4.90;99.90;;;;;;5084772;28;20208;-74
2021/11/27 00:13:08;;;;;;;16.45;4.57;;;4.80;99.90;;;;;;5087506;28;20219;-74
2021/11/27 00:15:54;;;;;;;7.85;4.80;;;4.80;99.90;;;;;;5090162;28;20433;-74
2021/11/27 00:18:41;;;;;;;8.75;4.53;;;4.80;99.90;;;;;;5085715;28;20622;-74
2021/11/27 00:21:27;;;;;;;6.15;4.22;;;4.80;99.90;;;;;;5088718;28;20203;-74
2021/11/27 00:24:13;;;;;;;8.07;4.07;;;4.70;99.90;;;;;;5085724;28;20219;-74
2021/11/27 00:26:58;;;;;;;10.27;4.35;;;4.80;99.90;;;;;;5090324;28;20309;-74
2021/11/27 00:29:44;;;;;;;11.50;4.50;;;4.90;99.90;;;;;;5089380;28;20238;-75
2021/11/27 00:32:30;;;;;;;5.85;4.22;;;4.90;99.90;;;;;;5088984;28;20567;-74
2021/11/27 00:35:19;;;;;;;8.73;3.92;;;5.00;99.90;;;;;;5085485;28;20362;-74
2021/11/27 00:38:06;;;;;;;4.50;3.40;;;5.00;99.90;;;;;;5081378;28;20285;-74
2021/11/27 00:40:51;;;;;;;8.35;4.40;;;4.90;99.90;;;;;;5090763;28;20295;-74
2021/11/27 00:43:37;;;;;;;5.80;3.95;;;4.80;99.90;;;;;;5085770;28;20220;-75
2021/11/27 00:46:23;;;;;;;6.45;4.20;;;4.70;99.90;;;;;;5090052;28;20810;-75
2021/11/27 00:49:10;;;;;;;4.90;3.47;;;4.70;99.90;;;;;;5088759;28;20278;-74
2021/11/27 00:51:57;;;;;;;5.28;3.42;;;4.60;99.90;;;;;;5087802;28;20591;-75
2021/11/27 00:54:43;;;;;;;5.40;3.35;;;4.50;99.90;;;;;;5085486;28;20231;-74
2021/11/27 00:57:28;;;;;;;6.60;4.18;;;4.50;99.90;;;;;;5087403;28;20203;-74
2021/11/27 01:00:18;;;;;;;9.75;4.45;;;4.50;99.90;;;;;;5087208;28;20684;-74
2021/11/27 01:03:09;;;;;;;8.30;4.07;;;4.50;99.90;;;;;;5092389;28;20241;-75
2021/11/27 01:05:58;;;;;;;5.60;3.78;;;4.50;99.90;;;;;;5089821;28;20219;-74
2021/11/27 01:08:45;;;;;;;7.53;4.15;;;4.60;99.90;;;;;;5089063;28;20207;-74
2021/11/27 01:11:33;;;;;;;7.18;3.40;;;4.60;99.90;;;;;;5088465;28;20305;-74
2021/11/27 01:14:22;;;;;;;12.35;4.10;;;4.60;99.90;;;;;;5093104;28;20200;-74
2021/11/27 01:17:09;;;;;;;6.00;3.45;;;4.50;99.90;;;;;;5087145;28;20199;-74
2021/11/27 01:19:55;;;;;;;4.85;3.50;;;4.50;99.90;;;;;;5087570;28;20237;-74
2021/11/27 01:22:41;;;;;;;5.80;3.13;;;4.60;99.90;;;;;;5093336;28;20289;-74
2021/11/27 01:25:28;;;;;;;6.13;3.13;;;4.70;99.90;;;;;;5088354;28;20592;-74
2021/11/27 01:28:16;;;;;;;7.18;4.20;;;4.70;99.90;;;;;;5089758;28;20208;-74
2021/11/27 01:31:03;;;;;;;5.15;2.60;;;4.70;99.90;;;;;;5090382;28;20203;-74
2021/11/27 01:33:49;;;;;;;5.50;2.83;;;4.70;99.90;;;;;;5082225;28;20226;-74
2021/11/27 01:36:35;;;;;;;3.67;2.90;;;4.70;99.90;;;;;;5091615;28;20220;-74
2021/11/27 01:39:21;;;;;;;6.15;3.13;;;4.70;99.90;;;;;;5086040;28;20214;-74
2021/11/27 01:42:10;;;;;;;4.78;2.60;;;4.80;99.90;;;;;;5086560;28;20257;-74
2021/11/27 01:44:56;;;;;;;4.60;3.00;;;4.80;99.90;;;;;;5090834;28;20227;-74
2021/11/27 01:47:47;;;;;;;5.28;3.10;;;4.70;99.90;;;;;;5086831;28;20212;-74
2021/11/27 01:50:36;;;;;;;12.55;3.13;;;4.70;99.90;;;;;;5090569;28;20204;-75
2021/11/27 01:53:23;;;;;;;4.82;3.08;;;4.60;99.90;;;;;;5090442;28;20265;-74
2021/11/27 01:56:13;;;;;;;5.80;3.63;;;4.60;99.90;;;;;;5083231;28;20261;-74
2021/11/27 01:59:00;;;;;;;4.10;3.00;;;4.60;99.90;;;;;;5090612;28;20727;-74
2021/11/27 02:01:47;;;;;;;6.80;4.03;;;4.70;99.90;;;;;;5088893;28;20207;-74
2021/11/27 02:04:33;;;;;;;5.15;2.80;;;4.70;99.90;;;;;;5088112;28;20207;-75
2021/11/27 02:07:19;;;;;;;4.18;3.28;;;4.60;99.90;;;;;;5084200;28;20228;-74
2021/11/27 02:10:06;;;;;;;4.70;2.70;;;4.60;99.90;;;;;;5089849;28;20203;-75
2021/11/27 02:12:52;;;;;;;5.78;3.10;;;4.60;99.90;;;;;;5092089;28;20208;-74
2021/11/27 02:15:39;;;;;;;6.18;2.45;;;4.60;99.90;;;;;;5087793;28;20235;-75
2021/11/27 02:18:25;;;;;;;4.03;2.63;;;4.60;99.90;;;;;;5085825;28;20200;-74
2021/11/27 02:21:14;;;;;;;6.57;2.50;;;4.60;99.90;;;;;;5083119;28;20241;-75
2021/11/27 02:24:00;;;;;;;4.07;2.80;;;4.60;99.90;;;;;;5083078;28;20281;-74
2021/11/27 02:26:47;;;;;;;4.75;2.80;;;4.70;99.90;;;;;;5088527;28;20223;-75
2021/11/27 02:29:34;;;;;;;3.88;2.40;;;4.60;99.90;;;;;;5083717;28;20710;-74
2021/11/27 02:32:20;;;;;;;4.40;2.20;;;4.60;99.90;;;;;;5086647;28;20200;-74
2021/11/27 02:35:07;;;;;;;7.22;2.97;;;4.70;99.90;;;;;;5090370;28;20223;-74
2021/11/27 02:37:54;;;;;;;6.55;2.55;;;4.70;99.90;;;;;;5082252;28;20937;-74
2021/11/27 02:40:41;;;;;;;3.83;2.45;;;4.80;99.90;;;;;;5085065;28;20289;-74
2021/11/27 02:43:27;;;;;;;3.33;2.45;;;4.80;99.90;;;;;;5080118;28;20692;-75
2021/11/27 02:46:13;;;;;;;7.85;2.45;;;4.80;99.90;;;;;;5090342;28;20338;-75
2021/11/27 02:48:58;;;;;;;4.38;2.45;;;4.80;99.90;;;;;;5088945;28;20680;-74
2021/11/27 02:51:45;;;;;;;3.42;2.03;;;4.70;99.90;;;;;;5082687;28;20279;-75
2021/11/27 02:54:32;;;;;;;3.60;2.30;;;4.70;99.90;;;;;;5085563;28;20228;-74
2021/11/27 02:57:17;;;;;;;5.38;3.05;;;4.80;99.90;;;;;;5082311;28;20661;-75
2021/11/27 03:00:08;;;;;;;4.00;2.45;;;4.80;99.90;;;;;;5081476;28;20198;-74
2021/11/27 03:02:54;;;;;;;4.40;2.10;;;4.70;99.90;;;;;;5085366;28;20626;-75
2021/11/27 03:05:40;;;;;;;5.32;2.20;;;4.80;99.90;;;;;;5083666;28;20224;-75
2021/11/27 03:08:25;;;;;;;7.15;2.67;;;4.80;99.90;;;;;;5085514;28;20707;-74
2021/11/27 03:11:12;;;;;;;4.78;2.20;;;4.80;99.90;;;;;;5087315;28;20688;-74
2021/11/27 03:13:58;;;;;;;2.58;2.10;;;4.80;99.90;;;;;;5080063;28;20669;-75
2021/11/27 03:16:44;;;;;;;5.88;2.30;;;4.90;99.90;;;;;;5088873;28;20263;-75
2021/11/27 03:19:32;;;;;;;3.50;2.30;;;5.00;99.90;;;;;;5084217;28;21853;-74
2021/11/27 03:22:20;;;;;;;4.85;2.22;;;5.00;99.90;;;;;;5080767;28;20943;-74
2021/11/27 03:25:07;;;;;;;3.67;1.70;;;4.90;99.90;;;;;;5082940;28;20228;-75
2021/11/27 03:27:54;;;;;;;3.42;2.13;;;5.00;99.90;;;;;;5088001;28;20203;-74
2021/11/27 03:30:40;;;;;;;4.35;2.58;;;5.00;99.90;;;;;;5089053;28;20212;-75
2021/11/27 03:33:26;;;;;;;3.78;2.20;;;5.00;99.90;;;;;;5082419;28;20203;-75
2021/11/27 03:36:12;;;;;;;2.53;1.45;;;4.90;99.90;;;;;;5082208;28;20220;-74
2021/11/27 03:38:57;;;;;;;5.47;2.78;;;5.00;99.90;;;;;;5084292;28;20212;-74
2021/11/27 03:41:43;;;;;;;5.40;1.85;;;5.00;99.90;;;;;;5080139;28;20204;-74
2021/11/27 03:44:30;;;;;;;4.95;1.77;;;5.00;99.90;;;;;;5086363;28;20566;-74
2021/11/27 03:47:17;;;;;;;2.70;1.77;;;4.90;99.90;;;;;;5082419;28;20223;-74
2021/11/27 03:50:02;;;;;;;2.97;2.00;;;5.00;99.90;;;;;;5088912;28;20285;-74
2021/11/27 03:52:48;;;;;;;3.45;2.00;;;4.90;99.90;;;;;;5087068;28;20204;-74
2021/11/27 03:55:34;;;;;;;4.25;1.85;;;4.90;99.90;;;;;;5075826;28;20227;-75
2021/11/27 03:58:21;;;;;;;8.93;1.95;;;4.90;99.90;;;;;;5086233;28;20571;-74
2021/11/27 04:01:12;;;;;;;2.70;1.90;;;5.00;99.90;;;;;;5086980;28;20219;-75
2021/11/27 04:03:59;;;;;;;7.95;2.10;;;5.10;99.90;;;;;;5080539;28;20338;-75
2021/11/27 04:06:45;;;;;;;7.68;1.80;;;5.10;99.90;;;;;;5085164;28;20227;-74
2021/11/27 04:09:32;;;;;;;5.95;1.70;;;5.10;99.90;;;;;;5088454;28;20314;-74
2021/11/27 04:12:18;;;;;;;5.63;1.90;;;5.00;99.90;;;;;;5080221;28;20282;-75
2021/11/27 04:15:05;;;;;;;4.55;2.05;;;5.00;99.90;;;;;;5085239;28;20223;-75
2021/11/27 04:17:52;;;;;;;3.50;2.20;;;4.90;99.90;;;;;;5087014;28;20204;-75
2021/11/27 04:20:38;;;;;;;2.33;1.52;;;4.90;99.90;;;;;;5093306;28;20289;-74
2021/11/27 04:23:24;;;;;;;4.82;2.40;;;5.00;99.90;;;;;;5082981;28;20277;-75
2021/11/27 04:26:10;;;;;;;2.88;1.90;;;5.00;99.90;;;;;;5090959;28;20352;-75
2021/11/27 04:28:56;;;;;;;3.30;2.05;;;5.00;99.90;;;;;;5087883;28;20207;-74
2021/11/27 04:31:42;;;;;;;3.45;1.88;;;5.00;99.90;;;;;;5087334;28;20200;-74
2021/11/27 04:34:28;;;;;;;4.07;1.90;;;5.00;99.90;;;;;;5088775;28;20202;-74
2021/11/27 04:37:15;;;;;;;3.95;1.98;;;5.00;99.90;;;;;;5088122;28;20206;-75
2021/11/27 04:40:02;;;;;;;3.58;2.20;;;5.00;99.90;;;;;;5087207;28;20289;-74
2021/11/27 04:42:48;;;;;;;2.67;1.83;;;5.00;99.90;;;;;;5086316;28;20277;-75
2021/11/27 04:45:34;;;;;;;2.45;1.75;;;5.10;99.90;;;;;;5090316;28;20226;-75
2021/11/27 04:48:21;;;;;;;5.45;2.30;;;5.00;99.90;;;;;;5089658;28;20199;-75
2021/11/27 04:51:08;;;;;;;4.25;1.70;;;5.10;99.90;;;;;;5085621;28;20700;-74
2021/11/27 04:53:53;;;;;;;3.40;2.20;;;5.10;99.90;;;;;;5085147;28;20622;-75
2021/11/27 04:56:39;;;;;;;5.20;2.25;;;5.10;99.90;;;;;;5088869;28;20245;-75
2021/11/27 04:59:25;;;;;;;2.33;1.60;;;5.00;99.90;;;;;;5089508;28;20223;-75
2021/11/27 05:02:10;;;;;;;2.25;1.70;;;5.00;99.90;;;;;;5085238;28;20203;-75
2021/11/27 05:04:56;;;;;;;3.63;2.10;;;5.10;99.90;;;;;;5083855;28;20372;-74
2021/11/27 05:07:43;;;;;;;3.25;1.80;;;5.00;99.90;;;;;;5088719;28;20265;-75
2021/11/27 05:10:29;;;;;;;3.08;2.28;;;5.00;99.90;;;;;;5088026;28;20249;-74
2021/11/27 05:13:15;;;;;;;3.50;2.00;;;5.00;99.90;;;;;;5086324;28;20200;-74
2021/11/27 05:16:01;;;;;;;3.83;2.83;;;5.00;99.90;;;;;;5086349;28;20334;-74
2021/11/27 05:18:47;;;;;;;6.38;3.38;;;4.90;99.90;;;;;;5089759;28;20220;-75
2021/11/27 05:21:32;;;;;;;3.60;2.22;;;4.90;99.90;;;;;;5084170;28;20208;-74
2021/11/27 05:24:20;;;;;;;2.53;1.90;;;5.00;99.90;;;;;;5084480;28;20203;-75
2021/11/27 05:27:06;;;;;;;2.80;2.13;;;4.90;99.90;;;;;;5084895;28;20226;-75
2021/11/27 05:29:51;;;;;;;3.30;2.25;;;4.90;99.90;;;;;;5088779;28;20203;-75
2021/11/27 05:32:53;;;;;;;2.90;2.20;;;4.90;99.90;;;;;;5084348;28;20203;-75
2021/11/27 05:35:40;;;;;;;2.58;2.00;;;4.90;99.90;;;;;;5087244;28;20222;-75
2021/11/27 05:38:26;;;;;;;4.93;2.60;;;5.00;99.90;;;;;;5087140;28;20199;-74
2021/11/27 05:41:14;;;;;;;3.83;2.58;;;4.90;99.90;;;;;;5083996;28;20249;-74
2021/11/27 05:44:00;;;;;;;4.38;2.08;;;4.90;99.90;;;;;;5086774;28;20615;-75
2021/11/27 05:46:46;;;;;;;8.30;2.50;;;4.90;99.90;;;;;;5088258;28;20223;-75
2021/11/27 05:49:31;;;;;;;6.10;2.33;;;4.90;99.90;;;;;;5085443;28;20285;-75
2021/11/27 05:52:17;;;;;;;3.65;2.33;;;4.80;99.90;;;;;;5085010;28;20203;-74
2021/11/27 05:55:05;;;;;;;3.58;2.58;;;4.70;99.90;;;;;;5084713;28;20579;-75
2021/11/27 05:57:52;;;;;;;3.28;2.42;;;4.70;99.90;;;;;;5090179;28;20701;-75
2021/11/27 06:00:38;;;;;;;3.05;2.40;;;4.70;99.90;;;;;;5084373;28;20669;-75
2021/11/27 06:03:24;;;;;;;3.25;2.30;;;4.70;99.90;;;;;;5088976;28;20258;-75
2021/11/27 06:06:09;;;;;;;4.07;3.05;;;4.80;99.90;;;;;;5086542;28;20235;-74
2021/11/27 06:08:55;;;;;;;4.20;2.45;;;4.80;99.90;;;;;;5081586;28;20220;-75
2021/11/27 06:11:42;;;;;;;3.65;2.42;;;4.80;99.90;;;;;;5080705;28;20207;-74
2021/11/27 06:14:32;;;;;;;3.80;2.70;;;4.80;99.90;;;;;;5083560;28;20388;-75
2021/11/27 06:17:18;;;;;;;5.85;2.60;;;4.80;99.90;;;;;;5083793;28;20199;-74
2021/11/27 06:20:05;;;;;;;3.75;2.55;;;4.80;99.90;;;;;;5088424;28;20207;-74
2021/11/27 06:22:50;;;;;;;3.38;2.63;;;4.80;99.90;;;;;;5085642;28;20577;-74
2021/11/27 06:25:36;;;;;;;3.05;2.50;;;4.80;99.90;;;;;;5089411;28;20460;-75
2021/11/27 06:28:23;;;;;;;2.97;2.47;;;4.90;99.90;;;;;;5085865;28;20227;-74
2021/11/27 06:31:10;;;;;;;3.40;2.78;;;4.80;99.90;;;;;;5088333;28;20211;-74
2021/11/27 06:33:55;;;;;;;5.43;2.85;;;4.80;99.90;;;;;;5090310;28;20207;-74
2021/11/27 06:36:41;;;;;;;4.25;3.05;;;4.80;99.90;;;;;;5083900;28;20262;-75
2021/11/27 06:39:27;;;;;;;4.35;3.13;;;4.70;99.90;;;;;;5091888;28;20208;-74
2021/11/27 06:42:13;;;;;;;5.05;3.10;;;4.70;99.90;;;;;;5087448;28;20204;-74
2021/11/27 06:44:59;;;;;;;4.10;2.90;;;4.70;99.90;;;;;;5085835;28;20724;-74
2021/11/27 06:47:46;;;;;;;3.00;2.60;;;4.80;99.90;;;;;;5091043;28;20906;-75
2021/11/27 06:50:31;;;;;;;5.00;3.30;;;4.80;99.90;;;;;;5086226;28;20216;-75
2021/11/27 06:53:17;;;;;;;5.13;3.30;;;4.90;99.90;;;;;;5090988;28;20198;-74
2021/11/27 06:56:03;;;;;;;3.78;2.65;;;4.80;99.90;;;;;;5088501;28;20226;-74
2021/11/27 06:58:48;;;;;;;6.82;2.88;;;4.80;99.90;;;;;;5085516;28;20205;-75
2021/11/27 07:01:34;;;;;;;3.45;2.65;;;4.90;99.90;;;;;;5087867;28;20274;-74
2021/11/27 07:04:22;;;;;;;3.33;2.65;;;4.90;99.90;;;;;;5086109;28;20277;-75
2021/11/27 07:07:07;;;;;;;4.15;3.60;;;4.90;99.90;;;;;;5089817;28;20232;-74
2021/11/27 07:09:53;;;;;;;3.08;2.40;;;5.00;99.90;;;;;;5084917;28;20220;-74
2021/11/27 07:12:39;;;;;;;3.53;3.17;;;5.00;99.90;;;;;;5086619;28;20343;-75
2021/11/27 07:15:25;;;;;;;3.08;2.63;;;5.00;99.90;;;;;;5083152;28;20744;-74
2021/11/27 07:18:10;;;;;;;2.72;2.33;;;4.90;99.90;;;;;;5088106;28;20196;-75
2021/11/27 07:20:58;;;;;;;3.30;2.90;;;4.90;99.90;;;;;;5082288;28;20301;-75
2021/11/27 07:23:43;;;;;;;5.40;2.85;;;4.80;99.90;;;;;;5089379;28;20215;-75
2021/11/27 07:26:29;;;;;;;3.95;2.95;;;4.80;99.90;;;;;;5088091;28;20261;-75
2021/11/27 07:29:14;;;;;;;3.10;2.60;;;4.90;99.90;;;;;;5089460;28;20203;-75
2021/11/27 07:32:00;;;;;;;3.40;2.60;;;5.00;99.90;;;;;;5082708;28;20265;-76
2021/11/27 07:34:45;;;;;;;2.58;2.30;;;5.00;99.90;;;;;;5090748;28;20230;-75
2021/11/27 07:37:32;;;;;;;3.75;3.22;;;5.00;99.90;;;;;;5087892;28;20290;-75
2021/11/27 07:40:18;;;;;;;4.40;3.00;;;5.00;99.90;;;;;;5090339;28;20263;-76
2021/11/27 07:43:05;;;;;;;3.92;2.53;;;5.00;99.90;;;;;;5088678;28;20326;-75
2021/11/27 07:45:51;;;;;;;3.63;3.22;;;5.10;99.90;;;;;;5088451;28;20581;-75
2021/11/27 07:48:36;;;;;;;3.72;3.00;;;5.00;99.90;;;;;;5087378;28;20595;-75
2021/11/27 07:51:22;;;;;;;4.43;3.05;;;5.00;99.90;;;;;;5088621;28;20558;-75
2021/11/27 07:54:09;;;;;;;5.47;3.10;;;5.10;99.90;;;;;;5095646;28;20211;-74
2021/11/27 07:56:56;;;;;;;3.80;2.90;;;5.10;99.90;;;;;;5092705;28;20203;-75
2021/11/27 07:59:42;;;;;;;3.42;2.63;;;5.10;99.90;;;;;;5093575;28;20207;-75
2021/11/27 08:02:28;;;;;;;5.30;3.60;;;5.20;99.90;;;;;;5090627;28;20207;-74
2021/11/27 08:05:14;;;;;;;4.25;3.25;;;5.20;99.90;;;;;;5089190;28;20964;-74
2021/11/27 08:07:59;;;;;;;3.72;2.70;;;5.20;99.90;;;;;;5094496;28;20215;-75
2021/11/27 08:10:47;;;;;;;3.47;2.85;;;5.30;99.90;;;;;;5094873;28;20665;-74
2021/11/27 08:13:33;;;;;;;3.58;2.40;;;5.30;99.90;;;;;;5088182;28;20684;-75
2021/11/27 08:16:19;;;;;;;4.70;2.33;;;5.40;99.90;;;;;;5106574;22;20230;-72
2021/11/27 08:19:04;;;;;;;4.60;3.35;;;5.30;99.90;;;;;;5091902;28;20671;-72
2021/11/27 08:21:50;;;;;;;4.28;2.50;;;5.30;99.90;;;;;;5082546;28;20211;-73
2021/11/27 08:24:36;;;;;;;3.10;2.28;;;5.30;99.90;;;;;;5088879;28;20218;-73
2021/11/27 08:27:24;;;;;;;2.90;2.60;;;5.30;99.90;;;;;;5086968;28;20763;-73
2021/11/27 08:30:11;;;;;;;3.80;2.50;;;5.30;99.90;;;;;;5086322;28;20330;-72
2021/11/27 08:32:57;;;;;;;3.63;2.63;;;5.30;99.90;;;;;;5086191;28;20207;-73
2021/11/27 08:35:42;;;;;;;8.90;2.85;;;5.20;99.90;;;;;;5087917;28;20346;-73
2021/11/27 08:38:30;;;;;;;4.20;2.95;;;5.20;99.90;;;;;;5092340;28;20252;-72
2021/11/27 08:41:16;;;;;;;4.20;3.20;;;5.20;99.90;;;;;;5087633;28;20204;-73
2021/11/27 08:44:03;;;;;;;4.47;2.95;;;5.20;99.90;;;;;;5082932;28;20211;-72
2021/11/27 08:46:49;;;;;;;3.53;2.38;;;5.20;99.90;;;;;;5088785;28;20243;-72
2021/11/27 08:49:35;;;;;;;3.05;2.53;;;5.20;99.90;;;;;;5080512;28;20335;-73
2021/11/27 08:52:21;;;;;;;8.32;2.88;;;5.10;99.90;;;;;;5089036;28;20653;-73
2021/11/27 08:55:07;;;;;;;3.00;2.53;;;5.10;99.90;;;;;;5084812;28;20211;-72
2021/11/27 08:57:53;;;;;;;3.70;2.95;;;5.10;99.90;;;;;;5087896;28;20199;-72
2021/11/27 09:00:41;;;;;;;3.17;2.75;;;5.20;99.90;;;;;;5089307;28;20248;-73
2021/11/27 09:03:27;;;;;;;3.55;2.70;;;5.20;99.90;;;;;;5088462;28;20200;-73
2021/11/27 09:06:13;;;;;;;5.30;3.67;;;5.30;99.90;;;;;;5089782;28;20216;-72
2021/11/27 09:08:59;;;;;;;3.38;2.55;;;5.30;99.90;;;;;;5082137;28;20223;-72
2021/11/27 09:11:45;;;;;;;4.85;3.20;;;5.30;99.90;;;;;;5090410;28;20313;-72
2021/11/27 09:14:30;;;;;;;7.20;2.50;;;5.40;99.90;;;;;;5090636;28;20681;-72
2021/11/27 09:17:17;;;;;;;4.85;1.95;;;5.40;99.90;;;;;;5086992;28;20621;-73
2021/11/27 09:20:04;;;;;;;3.67;2.40;;;5.30;99.90;;;;;;5087438;28;20728;-72
2021/11/27 09:22:50;;;;;;;2.53;1.95;;;5.30;99.90;;;;;;5089393;28;20207;-73
2021/11/27 09:25:37;;;;;;;3.83;2.88;;;5.30;99.90;;;;;;5083514;28;20327;-73
2021/11/27 09:28:23;;;;;;;3.95;2.28;;;5.30;99.90;;;;;;5087077;28;20211;-73
2021/11/27 09:31:08;;;;;;;2.90;2.53;;;5.30;99.90;;;;;;5085402;28;20623;-73
2021/11/27 09:33:55;;;;;;;3.33;2.65;;;5.30;99.90;;;;;;5087751;28;20199;-73
2021/11/27 09:36:42;;;;;;;5.15;2.55;;;5.30;99.90;;;;;;5087518;28;20696;-73
2021/11/27 09:39:29;;;;;;;4.65;2.78;;;5.30;99.90;;;;;;5083682;28;20207;-74
2021/11/27 09:42:16;;;;;;;3.97;2.70;;;5.40;99.90;;;;;;5092357;28;20293;-73
2021/11/27 09:45:03;;;;;;;3.20;2.58;;;5.50;99.90;;;;;;5089815;28;20250;-73
2021/11/27 09:47:50;;;;;;;4.13;2.20;;;5.50;99.90;;;;;;5093676;28;20301;-73
2021/11/27 09:50:37;;;;;;;3.45;2.90;;;5.50;99.90;;;;;;5087315;28;20221;-74
2021/11/27 09:53:24;;;;;;;3.35;2.75;;;5.40;99.90;;;;;;5091245;28;20593;-73
2021/11/27 09:56:10;;;;;;;5.90;3.95;;;5.40;99.90;;;;;;5090217;28;20269;-73
2021/11/27 09:58:57;;;;;;;5.70;4.60;;;5.40;99.90;;;;;;5083198;28;20492;-73
2021/11/27 10:01:45;;;;;;;6.30;4.80;;;5.40;99.90;;;;;;5091975;28;20238;-74
2021/11/27 10:04:32;;;;;;;3.03;2.70;;;5.50;99.90;;;;;;5089761;28;20199;-73
2021/11/27 10:07:21;;;;;;;4.25;2.85;;;5.60;99.90;;;;;;5086219;28;20718;-74
2021/11/27 10:10:09;;;;;;;3.95;2.92;;;5.60;99.90;;;;;;5085636;28;20338;-73
2021/11/27 10:12:55;;;;;;;4.20;2.85;;;5.60;99.90;;;;;;5086127;28;20618;-73
2021/11/27 10:15:41;;;;;;;7.15;3.58;;;5.60;99.90;;;;;;5082167;28;20231;-73
2021/11/27 10:18:27;;;;;;;4.47;3.72;;;5.60;99.90;;;;;;5090435;28;20319;-73
2021/11/27 10:21:18;;;;;;;6.15;3.40;;;5.60;99.90;;;;;;5091294;28;20211;-72
2021/11/27 10:24:20;;;;;;;3.45;3.15;;;5.60;99.90;;;;;;5087986;28;20221;-73
2021/11/27 10:27:16;;;;;;;3.92;3.30;;;5.60;99.90;;;;;;5086812;28;20587;-73
2021/11/27 10:30:07;;;;;;;3.95;3.15;;;5.60;99.90;;;;;;5082513;28;20208;-73
2021/11/27 10:32:55;;;;;;;4.65;3.03;;;5.70;99.90;;;;;;5089792;28;20211;-73
2021/11/27 10:35:57;;;;;;;4.30;3.65;;;5.60;99.90;;;;;;5087125;28;20239;-73
2021/11/27 10:38:45;;;;;;;8.30;3.20;;;5.70;99.90;;;;;;5089856;28;20278;-73
2021/11/27 10:41:36;;;;;;;3.83;2.90;;;5.70;99.90;;;;;;5087673;28;20537;-73
2021/11/27 10:44:26;;;;;;;4.50;2.90;;;5.80;99.90;;;;;;5091896;28;20575;-73
2021/11/27 10:47:14;;;;;;;3.70;3.03;;;5.80;99.90;;;;;;5088765;28;20218;-73
2021/11/27 10:50:05;;;;;;;4.45;3.10;;;5.80;99.90;;;;;;5089805;28;20227;-73
2021/11/27 10:52:53;;;;;;;4.03;3.20;;;5.80;99.90;;;;;;5081394;28;20207;-73
2021/11/27 10:55:40;;;;;;;3.60;2.83;;;5.90;99.90;;;;;;5089601;28;20349;-73
2021/11/27 10:58:27;;;;;;;4.93;3.72;;;5.80;99.90;;;;;;5083005;28;20212;-74
2021/11/27 11:01:13;;;;;;;5.25;3.45;;;5.80;99.90;;;;;;5085380;28;20199;-73
2021/11/27 11:04:14;;;;;;;5.47;3.30;;;5.80;99.90;;;;;;5088199;28;20613;-74
2021/11/27 11:07:20;;;;;;;5.65;3.25;;;5.80;99.90;;;;;;5075472;28;20599;-74
2021/11/27 11:10:15;;;;;;;10.73;3.22;;;5.80;99.90;;;;;;5088595;28;20239;-74
2021/11/27 11:13:02;;;;;;;3.30;2.85;;;5.80;99.90;;;;;;5090184;28;20212;-74
2021/11/27 11:15:49;;;;;;;4.57;3.55;;;5.70;99.90;;;;;;5083448;28;20231;-74
2021/11/27 11:18:35;;;;;;;3.45;2.92;;;5.70;99.90;;;;;;5082865;28;20207;-73
2021/11/27 11:21:24;;;;;;;4.07;3.03;;;5.80;99.90;;;;;;5085576;28;20215;-74
2021/11/27 11:24:23;;;;;;;4.70;3.33;;;5.70;99.90;;;;;;5087543;28;20204;-74
2021/11/27 11:27:09;;;;;;;4.28;3.00;;;5.80;99.90;;;;;;5087049;28;20311;-74
2021/11/27 11:29:55;;;;;;;4.63;2.95;;;5.80;99.90;;;;;;5078294;28;20250;-73
2021/11/27 11:32:41;;;;;;;4.65;3.10;;;5.80;99.90;;;;;;5089561;28;20206;-74
2021/11/27 11:35:27;;;;;;;3.20;2.55;;;5.80;99.90;;;;;;5085773;28;20219;-74
2021/11/27 11:38:16;;;;;;;3.83;3.33;;;5.70;99.90;;;;;;5080166;28;20263;-74
2021/11/27 11:41:01;;;;;;;3.67;3.30;;;5.80;99.90;;;;;;5085271;28;20203;-74
2021/11/27 11:43:48;;;;;;;4.05;3.25;;;5.70;99.90;;;;;;5083643;28;20288;-74
2021/11/27 11:46:33;;;;;;;4.35;3.10;;;5.80;99.90;;;;;;5081389;28;20258;-74
2021/11/27 11:49:20;;;;;;;4.45;2.70;;;5.80;99.90;;;;;;5080732;28;20597;-73
2021/11/27 11:52:16;;;;;;;4.35;3.15;;;5.80;99.90;;;;;;5080691;28;20319;-73
2021/11/27 11:55:05;;;;;;;4.97;2.60;;;5.70;99.90;;;;;;5085983;28;20271;-74
2021/11/27 11:57:54;;;;;;;8.27;3.00;;;5.70;99.90;;;;;;5079991;28;20646;-74
2021/11/27 12:00:42;;;;;;;5.57;2.67;;;5.80;99.90;;;;;;5082281;28;20203;-74
2021/11/27 12:03:36;;;;;;;3.67;2.50;;;5.90;99.90;;;;;;5080062;28;20195;-74
2021/11/27 12:06:29;;;;;;;4.10;2.90;;;5.90;99.90;;;;;;5088326;28;20220;-74
2021/11/27 12:09:15;;;;;;;5.50;2.88;;;5.90;99.90;;;;;;5083375;28;20712;-74
2021/11/27 12:12:03;;;;;;;6.57;3.55;;;5.70;99.90;;;;;;5083835;28;20207;-73
2021/11/27 12:15:07;;;;;;;4.60;3.65;;;5.70;99.90;;;;;;5088495;28;20341;-74
2021/11/27 12:18:09;;;;;;;3.67;2.70;;;5.80;99.90;;;;;;5081711;28;20199;-74
2021/11/27 12:20:57;;;;;;;4.88;3.45;;;5.80;99.90;;;;;;5081577;28;20207;-73
2021/11/27 12:23:45;;;;;;;5.35;3.35;;;5.70;99.90;;;;;;5084330;28;20228;-74
2021/11/27 12:26:31;;;;;;;5.80;4.38;;;5.80;99.90;;;;;;5084065;28;20611;-73
2021/11/27 12:29:16;;;;;;;5.75;3.58;;;5.80;99.90;;;;;;5084246;28;20219;-74
2021/11/27 12:32:10;;;;;;;7.95;3.30;;;5.80;99.90;;;;;;5084527;28;20203;-72
2021/11/27 12:34:55;;;;;;;5.70;4.03;;;5.80;99.90;;;;;;5086141;28;20204;-73
2021/11/27 12:37:41;;;;;;;8.68;3.65;;;5.80;99.90;;;;;;5084350;28;20215;-73
2021/11/27 12:40:35;;;;;;;5.28;3.88;;;5.70;99.90;;;;;;5089662;28;20677;-73
2021/11/27 12:43:21;;;;;;;4.57;3.47;;;5.70;99.90;;;;;;5090749;28;20207;-73
2021/11/27 12:46:26;;;;;;;4.30;3.50;;;5.70;99.90;;;;;;5091348;28;20219;-73
2021/11/27 12:49:54;;;;;;;4.97;4.00;;;5.70;99.90;;;;;;5087244;28;20227;-73
2021/11/27 12:52:42;;;;;;;6.25;3.80;;;5.70;99.90;;;;;;5086653;28;20205;-74
2021/11/27 12:55:38;;;;;;;5.38;4.28;;;5.70;99.90;;;;;;5090290;28;20231;-73
2021/11/27 12:58:33;;;;;;;7.53;4.50;;;5.70;99.90;;;;;;5085453;28;20198;-74
2021/11/27 13:01:27;;;;;;;7.95;4.40;;;5.90;99.90;;;;;;5093004;28;20242;-74
2021/11/27 13:04:14;;;;;;;6.25;4.68;;;5.90;99.90;;;;;;5090511;28;20203;-74
2021/11/27 13:06:59;;;;;;;6.55;5.55;;;6.00;99.90;;;;;;5090909;28;20223;-73
2021/11/27 13:09:55;;;;;;;9.13;5.35;;;6.00;99.90;;;;;;5091442;28;20223;-73
2021/11/27 13:12:59;;;;;;;17.75;10.30;;;6.10;99.90;;;;;;5086563;28;20207;-74
2021/11/27 13:15:46;;;;;;;10.95;7.20;;;6.00;99.90;;;;;;5083350;28;20447;-73
2021/11/27 13:18:32;;;;;;;13.85;6.32;;;6.00;99.90;;;;;;5082770;28;20556;-74
2021/11/27 13:21:18;;;;;;;13.77;8.77;;;6.00;99.90;;;;;;5087806;28;20281;-73
2021/11/27 13:24:06;;;;;;;9.25;6.97;;;6.00;99.90;;;;;;5088929;28;20220;-73
2021/11/27 13:26:52;;;;;;;7.75;5.00;;;5.90;99.90;;;;;;5081927;28;20305;-74
2021/11/27 13:29:39;;;;;;;9.60;6.97;;;6.00;99.90;;;;;;5081130;28;20232;-73
2021/11/27 13:32:35;;;;;;;7.15;4.85;;;6.10;99.90;;;;;;5087612;28;20208;-72
2021/11/27 13:35:22;;;;;;;5.07;4.53;;;5.90;99.90;;;;;;5092545;28;20291;-73
2021/11/27 13:38:09;;;;;;;7.88;4.70;;;5.90;99.90;;;;;;5081860;28;20245;-73
2021/11/27 13:40:55;;;;;;;8.93;6.07;;;6.00;99.90;;;;;;5087463;28;20199;-74
2021/11/27 13:43:47;;;;;;;10.52;7.13;;;6.10;99.90;;;;;;5089169;28;20245;-73
2021/11/27 13:46:48;;;;;;;8.20;5.32;;;6.10;99.90;;;;;;5088617;28;20755;-73
2021/11/27 13:49:38;;;;;;;7.30;5.05;;;6.00;99.90;;;;;;5092101;28;20226;-74
2021/11/27 13:52:28;;;;;;;9.98;6.63;;;6.00;99.90;;;;;;5092670;28;20199;-74
2021/11/27 13:55:16;;;;;;;6.78;5.22;;;5.90;99.90;;;;;;5089861;28;20688;-73
2021/11/27 13:58:04;;;;;;;7.47;4.80;;;6.00;99.90;;;;;;5085512;28;20199;-73
2021/11/27 14:00:50;;;;;;;5.47;4.65;;;6.00;99.90;;;;;;5087988;28;20196;-73
2021/11/27 14:03:37;;;;;;;10.38;5.32;;;6.00;99.90;;;;;;5090433;28;20750;-73
2021/11/27 14:06:23;;;;;;;8.60;5.35;;;6.10;99.90;;;;;;5089156;28;20318;-73
2021/11/27 14:09:08;;;;;;;13.85;9.02;;;6.10;99.90;;;;;;5089215;28;20326;-74
2021/11/27 14:11:54;;;;;;;10.10;6.80;;;6.10;99.90;;;;;;5089943;28;20277;-73
2021/11/27 14:14:53;;;;;;;7.72;6.03;;;6.10;99.90;;;;;;5092362;28;20212;-73
2021/11/27 14:17:41;;;;;;;7.03;4.85;;;6.00;99.90;;;;;;5112938;22;20227;-73
2021/11/27 14:20:32;;;;;;;6.32;4.90;;;6.10;99.90;;;;;;5084148;28;20196;-73
2021/11/27 14:23:19;;;;;;;8.45;5.80;;;6.20;99.90;;;;;;5084104;28;20207;-72
2021/11/27 14:26:07;;;;;;;8.00;4.88;;;6.20;99.90;;;;;;5083575;28;20236;-72
2021/11/27 14:28:54;;;;;;;11.20;5.15;;;6.20;99.90;;;;;;5066814;28;20207;-74
2021/11/27 14:31:40;;;;;;;7.43;5.53;;;6.30;99.90;;;;;;5068353;28;20334;-73
2021/11/27 14:34:34;;;;;;;5.73;4.70;;;6.20;99.90;;;;;;5071112;28;20200;-73
2021/11/27 14:37:21;;;;;;;16.13;9.88;;;6.20;99.90;;;;;;5066378;28;20462;-72
2021/11/27 14:40:08;;;;;;;10.43;6.97;;;6.20;99.90;;;;;;5070720;28;20207;-73
2021/11/27 14:43:03;;;;;;;11.98;8.20;;;6.20;99.90;;;;;;5062855;28;20255;-73